Terminal Aerodrome Forecast
Issued by NWS

Home | Current Version | Previous Version | Text Only | Print | Product List | Glossary On
Versions: 1 2 3 4 5 6 7 8 9 10 11 12 13 14 15 16 17 18 19 20 21 22 23
000
FTUS43 KGRR 300104 AAA
TAFLAN
TAF AMD
KLAN 300104Z 3001/3024 06012KT P6SM -SHRA OVC035
     FM300300 05009G15KT 5SM -RA BR OVC025
     FM300600 07013G21KT 5SM -RA BR OVC011
     FM300900 09014G20KT 3SM -RA BR VCTS OVC005CB
     FM301500 09011KT 2SM -SHRA BR OVC003=

USA.gov is the U.S. government's official web portal to all federal, state and local government web resources and services.